San Francisco, California
Traffic Map
Current Weather Conditions
San Francisco, California
Scattered Clouds
Scattered Clouds
14°
Feels Like: 14°
Wind Chill: 14° Ceiling: Unl
Heat Index: 14° Visibility: 10mi
Dew Point: Wind: 14mph
Humidity: 67% Direction: 230° (SW)
Pressure: 29.89in Gusts: 0mph
Raw Report DataKSFO 040156Z 23012KT 10SM FEW010 SCT180 14/08 A2989 RMK AO2 SLP121 T01440083
Traffic Incident Summary
Active as of:
Severity:
Category:
InformationThere was an issue retrieving the traffic information for this location. Please try a different location or try again shortly.
Advertisements
Track Severe Weather on mobile